Time;durP1;ratioP1;P1;durP2;ratioP2;P2;SDS_P1;SDS_P2;PMS_P1;PMS_P2;Temp;Humidity;BMP_temperature;BMP_pressure;BME280_temperature;BME280_humidity;BME280_pressure;Samples;Min_cycle;Max_cycle;Signal;HPM_P1;HPM_P2
2021/08/04 00:01:38;;;;;;;5.97;3.40;;;19.10;99.90;;;;;;4989066;28;20454;-48
2021/08/04 00:04:06;;;;;;;6.93;3.80;;;19.10;99.90;;;;;;4987233;28;20450;-47
2021/08/04 00:06:33;;;;;;;4.57;3.27;;;19.10;99.90;;;;;;4986599;28;20482;-48
2021/08/04 00:09:01;;;;;;;4.30;3.47;;;19.20;99.90;;;;;;4986458;28;20446;-43
2021/08/04 00:11:28;;;;;;;6.13;3.40;;;19.20;99.90;;;;;;4989446;28;20452;-46
2021/08/04 00:13:54;;;;;;;3.50;3.20;;;19.10;99.90;;;;;;4989285;28;20437;-48
2021/08/04 00:16:21;;;;;;;3.30;3.00;;;19.10;99.90;;;;;;4988370;28;20928;-49
2021/08/04 00:18:48;;;;;;;5.20;3.03;;;19.10;99.90;;;;;;4990634;28;20477;-46
2021/08/04 00:21:16;;;;;;;7.20;3.60;;;19.10;99.90;;;;;;4989769;28;20508;-45
2021/08/04 00:23:43;;;;;;;4.50;3.27;;;19.10;99.90;;;;;;4986689;28;20450;-43
2021/08/04 00:26:09;;;;;;;3.67;3.20;;;19.10;99.90;;;;;;4990294;28;20512;-47
2021/08/04 00:28:36;;;;;;;3.83;3.43;;;19.10;99.90;;;;;;4989929;28;20440;-50
2021/08/04 00:31:03;;;;;;;4.60;3.87;;;19.10;99.90;;;;;;4992034;28;20504;-48
2021/08/04 00:33:30;;;;;;;9.50;4.07;;;19.10;99.90;;;;;;4990096;28;20473;-43
2021/08/04 00:35:56;;;;;;;4.40;2.90;;;19.10;99.90;;;;;;4987393;28;20447;-48
2021/08/04 00:38:25;;;;;;;3.47;3.17;;;19.00;99.90;;;;;;4986649;28;20477;-45
2021/08/04 00:40:51;;;;;;;4.90;3.37;;;19.00;99.90;;;;;;4989639;28;20457;-48
2021/08/04 00:43:18;;;;;;;4.07;3.40;;;19.00;99.90;;;;;;4987747;28;20459;-49
2021/08/04 00:45:45;;;;;;;3.57;2.63;;;19.00;99.90;;;;;;4987070;28;20920;-47
2021/08/04 00:48:12;;;;;;;4.40;3.07;;;19.00;99.90;;;;;;4986964;28;20457;-43
2021/08/04 00:50:38;;;;;;;3.80;3.23;;;19.00;99.90;;;;;;4986310;28;20490;-46
2021/08/04 00:53:19;;;;;;;6.70;3.70;;;19.00;99.90;;;;;;4991877;28;20438;-46
2021/08/04 00:55:48;;;;;;;2.63;2.43;;;18.90;99.90;;;;;;4988787;28;20450;-46
2021/08/04 00:58:15;;;;;;;3.60;3.00;;;18.90;99.90;;;;;;4992153;28;20969;-48
2021/08/04 01:00:46;;;;;;;4.23;2.90;;;18.90;99.90;;;;;;4987761;28;20946;-45
2021/08/04 01:03:18;;;;;;;9.03;3.00;;;18.90;99.90;;;;;;4989309;28;20442;-46
2021/08/04 01:05:52;;;;;;;3.00;2.70;;;18.90;99.90;;;;;;4989045;28;20463;-45
2021/08/04 01:08:24;;;;;;;3.60;2.80;;;18.90;99.90;;;;;;4988837;28;20466;-45
2021/08/04 01:10:54;;;;;;;3.63;3.00;;;18.90;99.90;;;;;;4990660;28;20454;-43
2021/08/04 01:13:27;;;;;;;3.30;2.93;;;18.90;99.90;;;;;;4988524;28;20447;-50
2021/08/04 01:16:00;;;;;;;3.23;2.90;;;18.90;99.90;;;;;;4986988;28;20958;-46
2021/08/04 01:18:30;;;;;;;3.33;2.50;;;18.80;99.90;;;;;;4989355;28;20497;-48
2021/08/04 01:20:57;;;;;;;5.40;2.50;;;18.80;99.90;;;;;;4988896;28;20442;-47
2021/08/04 01:23:33;;;;;;;2.63;2.43;;;18.70;99.90;;;;;;4983834;28;20935;-50
2021/08/04 01:26:06;;;;;;;2.93;2.67;;;18.70;99.90;;;;;;4979299;28;20442;-47
2021/08/04 01:28:40;;;;;;;3.20;2.87;;;18.70;99.90;;;;;;4978400;28;20509;-48
2021/08/04 01:31:11;;;;;;;3.60;2.60;;;18.80;99.90;;;;;;4978181;28;20912;-51
2021/08/04 01:33:40;;;;;;;3.03;2.53;;;18.80;99.90;;;;;;4978287;28;20446;-43
2021/08/04 01:36:09;;;;;;;3.50;3.00;;;18.70;99.90;;;;;;4978098;28;20458;-46
2021/08/04 01:38:37;;;;;;;3.50;3.17;;;18.80;99.90;;;;;;4979032;28;20804;-50
2021/08/04 01:41:05;;;;;;;4.17;2.90;;;18.80;99.90;;;;;;4978919;28;20461;-45
2021/08/04 01:43:34;;;;;;;5.00;3.17;;;18.80;99.90;;;;;;4979370;28;20458;-43
2021/08/04 01:46:01;;;;;;;3.70;2.93;;;18.80;99.90;;;;;;4978920;28;20836;-46
2021/08/04 01:48:37;;;;;;;3.43;2.87;;;18.80;99.90;;;;;;4978630;28;20809;-48
2021/08/04 01:51:05;;;;;;;3.00;2.50;;;18.80;99.90;;;;;;4982709;28;20482;-45
2021/08/04 01:53:33;;;;;;;3.30;2.73;;;18.70;99.90;;;;;;4977877;28;20447;-43
2021/08/04 01:56:00;;;;;;;3.73;2.87;;;18.70;99.90;;;;;;4978980;28;20471;-45
2021/08/04 01:58:27;;;;;;;4.53;3.30;;;18.70;99.90;;;;;;4978216;28;20544;-51
2021/08/04 02:00:55;;;;;;;3.40;2.70;;;18.70;99.90;;;;;;4979101;28;20450;-49
2021/08/04 02:03:22;;;;;;;5.50;2.33;;;18.70;99.90;;;;;;4980572;28;20473;-44
2021/08/04 02:05:49;;;;;;;5.63;2.83;;;18.60;99.90;;;;;;4981570;28;20470;-43
2021/08/04 02:08:22;;;;;;;2.63;2.23;;;18.60;99.90;;;;;;4981548;28;20486;-49
2021/08/04 02:10:55;;;;;;;3.50;3.20;;;18.60;99.90;;;;;;4981965;28;20486;-46
2021/08/04 02:13:30;;;;;;;3.93;2.70;;;18.50;99.90;;;;;;4982006;28;20852;-47
2021/08/04 02:16:13;;;;;;;3.20;2.90;;;18.50;99.90;;;;;;4981725;28;20505;-50
2021/08/04 02:18:46;;;;;;;2.77;2.47;;;18.60;99.90;;;;;;4981401;28;20471;-45
2021/08/04 02:21:16;;;;;;;2.70;2.30;;;18.50;99.90;;;;;;4982528;28;20462;-48
2021/08/04 02:23:46;;;;;;;4.73;2.90;;;18.50;99.90;;;;;;5000099;28;20489;-51
2021/08/04 02:26:18;;;;;;;3.23;2.93;;;18.50;99.90;;;;;;5020716;28;20883;-48
2021/08/04 02:28:49;;;;;;;4.37;2.37;;;18.50;99.90;;;;;;5020942;28;20921;-51
2021/08/04 02:31:18;;;;;;;3.17;2.77;;;18.50;99.90;;;;;;5020399;28;20442;-51
2021/08/04 02:33:45;;;;;;;4.20;2.90;;;18.50;99.90;;;;;;5020324;28;20452;-51
2021/08/04 02:36:13;;;;;;;4.20;3.13;;;18.50;99.90;;;;;;5020468;28;20434;-47
2021/08/04 02:38:40;;;;;;;7.50;3.37;;;18.50;99.90;;;;;;5019951;28;20469;-49
2021/08/04 02:41:07;;;;;;;2.83;2.50;;;18.50;99.90;;;;;;5020064;28;20448;-49
2021/08/04 02:43:37;;;;;;;3.17;2.87;;;18.50;99.90;;;;;;5020313;28;20446;-45
2021/08/04 02:46:04;;;;;;;3.93;3.30;;;18.50;99.90;;;;;;5019720;28;20463;-43
2021/08/04 02:48:34;;;;;;;4.93;3.53;;;18.50;99.90;;;;;;5019440;28;20442;-43
2021/08/04 02:51:04;;;;;;;4.47;3.43;;;18.50;99.90;;;;;;5019209;28;20438;-44
2021/08/04 02:53:31;;;;;;;4.40;2.90;;;18.40;99.90;;;;;;5020400;28;20422;-44
2021/08/04 02:55:58;;;;;;;4.13;3.03;;;18.40;99.90;;;;;;5020326;28;20418;-48
2021/08/04 02:58:27;;;;;;;4.50;4.10;;;18.40;99.90;;;;;;5020007;28;20427;-47
2021/08/04 03:00:54;;;;;;;5.37;4.00;;;18.40;99.90;;;;;;5020520;28;20457;-46
2021/08/04 03:03:21;;;;;;;4.63;3.50;;;18.40;99.90;;;;;;5020638;28;20447;-43
2021/08/04 03:05:49;;;;;;;3.57;3.27;;;18.40;99.90;;;;;;5020289;28;20426;-44
2021/08/04 03:08:16;;;;;;;4.40;4.00;;;18.30;99.90;;;;;;5020050;28;20458;-48
2021/08/04 03:10:42;;;;;;;6.20;4.10;;;18.30;99.90;;;;;;5019824;28;20457;-44
2021/08/04 03:13:09;;;;;;;5.53;3.73;;;18.30;99.90;;;;;;5019842;28;20461;-47
2021/08/04 03:15:36;;;;;;;9.00;5.43;;;18.20;99.90;;;;;;5019722;28;20469;-46
2021/08/04 03:18:03;;;;;;;6.30;4.33;;;18.20;99.90;;;;;;5019703;28;20434;-49
2021/08/04 03:20:29;;;;;;;7.10;5.00;;;18.20;99.90;;;;;;5019388;28;20470;-49
2021/08/04 03:22:57;;;;;;;5.43;4.40;;;18.20;99.90;;;;;;5019242;28;20445;-47
2021/08/04 03:25:26;;;;;;;10.07;4.60;;;18.10;99.90;;;;;;5019311;28;20434;-46
2021/08/04 03:27:52;;;;;;;5.33;4.30;;;18.20;99.90;;;;;;5019320;28;20462;-49
2021/08/04 03:30:19;;;;;;;5.07;4.57;;;18.10;99.90;;;;;;5018997;28;20485;-48
2021/08/04 03:32:46;;;;;;;4.73;4.10;;;18.10;99.90;;;;;;5018556;28;20506;-51
2021/08/04 03:35:14;;;;;;;4.80;4.23;;;18.10;99.90;;;;;;5018723;28;20426;-50
2021/08/04 03:37:41;;;;;;;7.00;4.80;;;18.10;99.90;;;;;;5018924;28;20457;-49
2021/08/04 03:40:11;;;;;;;6.80;5.33;;;18.00;99.90;;;;;;5018779;28;20482;-49
2021/08/04 03:42:38;;;;;;;7.23;6.40;;;18.00;99.90;;;;;;5018804;28;20465;-47
2021/08/04 03:45:05;;;;;;;6.10;5.37;;;18.00;99.90;;;;;;5018555;28;20446;-49
2021/08/04 03:47:34;;;;;;;5.80;4.77;;;18.00;99.90;;;;;;5018649;28;20438;-48
2021/08/04 03:50:00;;;;;;;6.13;4.33;;;18.00;99.90;;;;;;5018551;28;20445;-47
2021/08/04 03:52:28;;;;;;;6.27;5.10;;;18.00;99.90;;;;;;5018969;28;20450;-51
2021/08/04 03:54:55;;;;;;;6.40;4.30;;;17.90;99.90;;;;;;5018953;28;20457;-47
2021/08/04 03:57:26;;;;;;;5.07;4.57;;;17.90;99.90;;;;;;5018643;28;20430;-51
2021/08/04 03:59:52;;;;;;;9.40;4.77;;;17.90;99.90;;;;;;5018337;28;20508;-51
2021/08/04 04:02:19;;;;;;;6.87;6.10;;;17.90;99.90;;;;;;5017518;28;20466;-49
2021/08/04 04:04:48;;;;;;;4.80;4.30;;;17.90;99.90;;;;;;5018608;28;20473;-47
2021/08/04 04:07:16;;;;;;;5.97;5.27;;;17.90;99.90;;;;;;5017679;28;20473;-49
2021/08/04 04:09:43;;;;;;;7.10;4.60;;;18.00;99.90;;;;;;5016680;28;20445;-45
2021/08/04 04:12:10;;;;;;;5.40;4.33;;;17.90;99.90;;;;;;5017598;28;20449;-46
2021/08/04 04:14:38;;;;;;;8.30;4.40;;;18.00;99.90;;;;;;5017788;28;20446;-48
2021/08/04 04:17:05;;;;;;;6.27;5.17;;;18.00;99.90;;;;;;5018102;28;20516;-49
2021/08/04 04:19:32;;;;;;;6.53;4.90;;;18.00;99.90;;;;;;5017756;28;21032;-49
2021/08/04 04:21:58;;;;;;;6.80;4.47;;;18.00;99.90;;;;;;5017465;28;20457;-52
2021/08/04 04:24:25;;;;;;;5.10;4.43;;;18.00;99.90;;;;;;5007018;28;20468;-54
2021/08/04 04:26:52;;;;;;;4.73;4.30;;;18.00;99.90;;;;;;4997513;28;20443;-52
2021/08/04 04:29:18;;;;;;;6.00;4.10;;;18.00;99.90;;;;;;4997697;28;20466;-51
2021/08/04 04:31:46;;;;;;;5.30;4.10;;;18.00;99.90;;;;;;5084799;23;20474;-50
2021/08/04 04:34:16;;;;;;;6.60;4.53;;;18.00;99.90;;;;;;5017526;28;20458;-49
2021/08/04 04:36:43;;;;;;;6.30;4.80;;;18.00;99.90;;;;;;5016948;28;20472;-50
2021/08/04 04:39:12;;;;;;;5.67;4.60;;;18.00;99.90;;;;;;4998907;28;20490;-47
2021/08/04 04:41:38;;;;;;;5.33;4.80;;;18.10;99.90;;;;;;5000376;28;20446;-48
2021/08/04 04:44:05;;;;;;;7.10;4.80;;;18.10;99.90;;;;;;4997943;28;20454;-52
2021/08/04 04:46:32;;;;;;;5.40;4.83;;;18.10;99.90;;;;;;4998004;28;20460;-50
2021/08/04 04:49:00;;;;;;;4.97;4.47;;;18.20;99.90;;;;;;4997781;28;20443;-50
2021/08/04 04:51:30;;;;;;;5.80;4.40;;;18.20;99.90;;;;;;4999945;28;20432;-51
2021/08/04 04:53:57;;;;;;;6.00;4.80;;;18.30;99.90;;;;;;5002602;28;20471;-48
2021/08/04 04:56:27;;;;;;;5.37;4.87;;;18.20;99.90;;;;;;4988043;28;20517;-50
2021/08/04 04:58:54;;;;;;;5.10;4.70;;;18.30;99.90;;;;;;4988555;28;20792;-46
2021/08/04 05:01:21;;;;;;;7.87;4.87;;;18.30;99.90;;;;;;4982049;28;20919;-51
2021/08/04 05:03:48;;;;;;;6.33;5.10;;;18.30;99.90;;;;;;4984665;28;20447;-50
2021/08/04 05:06:16;;;;;;;6.10;5.23;;;18.40;99.90;;;;;;4983579;28;20467;-48
2021/08/04 05:08:43;;;;;;;6.30;4.60;;;18.30;99.90;;;;;;4985122;28;20500;-52
2021/08/04 05:11:09;;;;;;;5.10;4.60;;;18.40;99.90;;;;;;4984997;28;20439;-52
2021/08/04 05:13:37;;;;;;;5.43;4.83;;;18.40;99.90;;;;;;4983335;28;20674;-48
2021/08/04 05:16:04;;;;;;;6.07;4.90;;;18.40;99.90;;;;;;4984951;28;20462;-48
2021/08/04 05:18:30;;;;;;;5.70;4.93;;;18.40;99.90;;;;;;4984675;28;20482;-50
2021/08/04 05:20:57;;;;;;;8.47;4.80;;;18.40;99.90;;;;;;4983137;28;20483;-50
2021/08/04 05:23:25;;;;;;;6.00;5.40;;;18.50;99.90;;;;;;4986234;28;20476;-48
2021/08/04 05:25:53;;;;;;;8.03;6.03;;;18.50;99.90;;;;;;4983282;28;20506;-50
2021/08/04 05:28:20;;;;;;;8.13;5.50;;;18.50;99.90;;;;;;4985383;28;20446;-50
2021/08/04 05:30:47;;;;;;;13.27;5.07;;;18.60;99.90;;;;;;4984020;28;20545;-50
2021/08/04 05:33:13;;;;;;;5.57;4.77;;;18.60;99.90;;;;;;4983125;28;20994;-53
2021/08/04 05:35:40;;;;;;;7.33;5.93;;;18.60;99.90;;;;;;4985247;28;20884;-52
2021/08/04 05:38:07;;;;;;;8.70;5.73;;;18.70;99.90;;;;;;4984764;28;20446;-53
2021/08/04 05:40:35;;;;;;;12.33;5.87;;;18.70;99.90;;;;;;4986637;28;20486;-54
2021/08/04 05:43:02;;;;;;;6.17;4.93;;;18.70;99.90;;;;;;4987052;28;20496;-53
2021/08/04 05:45:30;;;;;;;6.13;5.63;;;18.70;99.90;;;;;;4993372;28;20558;-50
2021/08/04 05:47:57;;;;;;;5.33;4.70;;;18.70;99.90;;;;;;5002970;28;20470;-54
2021/08/04 05:50:25;;;;;;;7.20;5.33;;;18.80;99.90;;;;;;5005311;28;20422;-53
2021/08/04 05:52:52;;;;;;;7.40;4.60;;;18.80;99.90;;;;;;5000195;28;20433;-53
2021/08/04 05:55:18;;;;;;;5.97;5.43;;;18.80;99.90;;;;;;5015554;28;20643;-53
2021/08/04 05:57:46;;;;;;;5.57;4.97;;;18.90;99.90;;;;;;5019506;28;20446;-50
2021/08/04 06:00:13;;;;;;;6.83;6.07;;;18.90;99.90;;;;;;5019159;28;20462;-51
2021/08/04 06:02:40;;;;;;;6.00;5.30;;;18.90;99.90;;;;;;5019525;28;20453;-52
2021/08/04 06:05:07;;;;;;;7.47;5.30;;;18.90;99.90;;;;;;5019407;28;20434;-52
2021/08/04 06:07:34;;;;;;;10.47;6.40;;;19.00;99.90;;;;;;5019848;28;20438;-53
2021/08/04 06:10:01;;;;;;;6.40;5.80;;;19.00;99.90;;;;;;5019723;28;20445;-50
2021/08/04 06:12:28;;;;;;;7.37;6.43;;;19.00;99.90;;;;;;5019336;28;20446;-52
2021/08/04 06:14:56;;;;;;;6.10;5.57;;;19.10;99.90;;;;;;5019483;28;20434;-54
2021/08/04 06:17:23;;;;;;;9.00;6.40;;;19.10;99.90;;;;;;5019515;28;20434;-54
2021/08/04 06:19:50;;;;;;;6.57;5.67;;;19.20;99.90;;;;;;5019473;28;20473;-52
2021/08/04 06:22:17;;;;;;;6.27;5.67;;;19.20;99.90;;;;;;5019018;28;20450;-51
2021/08/04 06:24:43;;;;;;;7.93;5.67;;;19.20;99.90;;;;;;5018926;28;20453;-53
2021/08/04 06:27:10;;;;;;;6.70;5.10;;;19.30;99.90;;;;;;5019531;28;20442;-49
2021/08/04 06:29:37;;;;;;;6.60;6.00;;;19.30;99.90;;;;;;5019895;28;20436;-51
2021/08/04 06:32:06;;;;;;;7.30;5.07;;;19.40;99.90;;;;;;5019863;28;20462;-52
2021/08/04 06:34:50;;;;;;;5.77;5.17;;;19.40;99.90;;;;;;5019896;28;20446;-48
2021/08/04 06:37:17;;;;;;;5.87;5.23;;;19.40;99.90;;;;;;5019126;28;20426;-48
2021/08/04 06:39:44;;;;;;;5.33;4.83;;;19.40;99.90;;;;;;5017888;28;20442;-48
2021/08/04 06:42:10;;;;;;;5.50;5.00;;;19.40;99.90;;;;;;5005444;28;20450;-45
2021/08/04 06:44:37;;;;;;;6.83;5.40;;;19.40;99.90;;;;;;5019333;28;20450;-48
2021/08/04 06:47:05;;;;;;;9.53;5.40;;;19.40;99.90;;;;;;5020146;28;20445;-49
2021/08/04 06:49:32;;;;;;;6.37;5.70;;;19.40;99.90;;;;;;5016399;28;20446;-46
2021/08/04 06:51:58;;;;;;;7.13;5.60;;;19.40;99.90;;;;;;5001723;28;20886;-48
2021/08/04 07:04:48;;;;;;;8.43;5.60;;;19.40;99.90;;;;;;5723165;23;20508;-50
2021/08/04 07:07:16;;;;;;;7.43;5.40;;;19.40;99.90;;;;;;4995959;28;20803;-46
2021/08/04 07:09:46;;;;;;;5.63;4.60;;;19.50;99.90;;;;;;4995671;28;20460;-46
2021/08/04 07:12:13;;;;;;;5.17;4.67;;;19.50;99.90;;;;;;4996388;28;20819;-47
2021/08/04 07:14:40;;;;;;;10.60;4.73;;;19.50;99.90;;;;;;4995990;28;20508;-48
2021/08/04 07:17:07;;;;;;;6.83;4.77;;;19.60;99.90;;;;;;4984582;28;21318;-48
2021/08/04 07:19:35;;;;;;;8.00;4.63;;;19.70;99.90;;;;;;4986777;28;20528;-51
2021/08/04 07:22:03;;;;;;;5.30;4.00;;;19.80;99.90;;;;;;4987027;28;20512;-51
2021/08/04 07:24:30;;;;;;;5.83;4.60;;;19.90;99.90;;;;;;4994688;28;20556;-45
2021/08/04 07:26:57;;;;;;;4.73;4.03;;;20.00;99.90;;;;;;4994948;28;20789;-47
2021/08/04 07:29:26;;;;;;;4.80;4.07;;;20.10;99.90;;;;;;4995844;28;20511;-45
2021/08/04 07:31:53;;;;;;;4.93;3.83;;;20.20;99.90;;;;;;4991626;28;20454;-50
2021/08/04 07:34:24;;;;;;;5.27;3.97;;;20.20;99.90;;;;;;4995271;28;20516;-45
2021/08/04 07:36:51;;;;;;;5.13;3.53;;;20.30;99.90;;;;;;4995932;28;20426;-45
2021/08/04 07:39:20;;;;;;;4.00;3.60;;;20.30;99.90;;;;;;4997387;28;20579;-49
2021/08/04 07:41:47;;;;;;;4.23;3.77;;;20.40;99.90;;;;;;4996898;28;20533;-46
2021/08/04 07:44:14;;;;;;;10.27;4.40;;;20.40;99.90;;;;;;4995898;28;20446;-45
2021/08/04 07:46:41;;;;;;;4.63;3.40;;;20.40;99.90;;;;;;4995845;28;20446;-48
2021/08/04 07:49:07;;;;;;;5.10;3.57;;;20.40;99.90;;;;;;4995710;28;20506;-46
2021/08/04 07:51:34;;;;;;;4.00;3.40;;;20.50;99.90;;;;;;4996744;28;20454;-46
2021/08/04 07:54:01;;;;;;;4.27;3.77;;;20.50;99.90;;;;;;4994750;28;20458;-53
2021/08/04 07:56:29;;;;;;;4.50;3.90;;;20.60;99.90;;;;;;4995158;28;20863;-50
2021/08/04 07:59:02;;;;;;;4.20;3.70;;;20.60;99.90;;;;;;4995302;28;20449;-48
2021/08/04 08:01:29;;;;;;;9.03;5.77;;;20.70;99.90;;;;;;4994706;28;20469;-51
2021/08/04 08:03:55;;;;;;;5.93;4.13;;;20.70;99.90;;;;;;4995224;28;20462;-49
2021/08/04 08:06:22;;;;;;;5.27;3.83;;;20.70;99.90;;;;;;4995163;28;20449;-49
2021/08/04 08:08:52;;;;;;;6.50;4.07;;;20.70;99.90;;;;;;4995130;28;20438;-49
2021/08/04 08:11:18;;;;;;;6.27;3.67;;;20.80;99.90;;;;;;4995326;28;20450;-52
2021/08/04 08:13:46;;;;;;;4.50;3.83;;;20.90;99.90;;;;;;4995347;28;20453;-50
2021/08/04 08:16:13;;;;;;;4.20;3.80;;;21.00;99.90;;;;;;4995167;28;20480;-51
2021/08/04 08:18:40;;;;;;;5.03;3.77;;;21.00;99.90;;;;;;4995196;28;20446;-52
2021/08/04 08:21:07;;;;;;;6.83;4.57;;;21.10;99.90;;;;;;4994710;28;21065;-47
2021/08/04 08:23:33;;;;;;;5.60;4.30;;;21.20;99.90;;;;;;4995126;28;20461;-51
2021/08/04 08:26:00;;;;;;;5.43;4.10;;;21.30;99.90;;;;;;4995100;28;20843;-49
2021/08/04 08:28:27;;;;;;;3.97;3.57;;;21.40;99.90;;;;;;4994842;28;20466;-50
2021/08/04 08:30:55;;;;;;;5.80;4.27;;;21.40;99.90;;;;;;4995004;28;20453;-50
2021/08/04 08:33:22;;;;;;;4.23;3.90;;;21.50;99.90;;;;;;4994757;28;20819;-47
2021/08/04 08:35:48;;;;;;;16.33;10.63;;;21.50;99.90;;;;;;4994888;28;20539;-47
2021/08/04 08:38:15;;;;;;;4.83;4.20;;;21.60;99.90;;;;;;4994515;28;20450;-50
2021/08/04 08:40:44;;;;;;;5.70;5.10;;;21.60;99.90;;;;;;4994738;28;20869;-48
2021/08/04 08:43:11;;;;;;;7.13;4.23;;;21.70;99.90;;;;;;4994817;28;20441;-51
2021/08/04 08:45:38;;;;;;;4.80;3.90;;;21.70;99.90;;;;;;4997002;28;20442;-50
2021/08/04 08:48:07;;;;;;;4.07;3.77;;;21.80;99.90;;;;;;4997866;28;20453;-51
2021/08/04 08:50:34;;;;;;;5.87;4.00;;;22.00;99.90;;;;;;4997651;28;20458;-51
2021/08/04 08:53:00;;;;;;;6.70;4.30;;;22.30;99.90;;;;;;4995958;28;20915;-51
2021/08/04 08:55:27;;;;;;;4.70;4.20;;;22.70;99.90;;;;;;4995517;28;20454;-49
2021/08/04 08:57:54;;;;;;;3.67;3.00;;;23.50;99.90;;;;;;4995231;28;20438;-52
2021/08/04 09:00:21;;;;;;;3.57;3.20;;;24.20;99.90;;;;;;4994456;28;20482;-49
2021/08/04 09:02:48;;;;;;;4.30;3.63;;;24.60;99.90;;;;;;4994922;28;20460;-50
2021/08/04 09:05:18;;;;;;;3.70;3.40;;;25.10;99.90;;;;;;4994646;28;20477;-50
2021/08/04 09:07:47;;;;;;;2.90;2.70;;;25.50;99.90;;;;;;4994829;28;20458;-50
2021/08/04 09:10:30;;;;;;;3.53;2.60;;;25.90;99.90;;;;;;4994872;28;20453;-53
2021/08/04 09:12:59;;;;;;;6.00;3.50;;;26.30;99.90;;;;;;4997913;28;20545;-52
2021/08/04 09:15:29;;;;;;;7.70;3.70;;;26.60;99.90;;;;;;4998805;28;20824;-53
2021/08/04 09:18:00;;;;;;;4.30;3.90;;;27.00;99.90;;;;;;4998466;28;20474;-54
2021/08/04 09:20:30;;;;;;;4.60;4.20;;;27.30;99.90;;;;;;4998257;28;20462;-49
2021/08/04 09:23:00;;;;;;;3.50;3.20;;;27.60;98.00;;;;;;4998343;28;20468;-50
2021/08/04 09:25:27;;;;;;;5.83;3.47;;;27.70;96.90;;;;;;4998181;28;20516;-49
2021/08/04 09:27:56;;;;;;;4.53;3.20;;;27.40;96.00;;;;;;4998026;28;20446;-50
2021/08/04 09:30:27;;;;;;;4.47;4.03;;;27.20;96.60;;;;;;4998197;28;20474;-46
2021/08/04 09:33:14;;;;;;;7.37;3.20;;;26.90;97.00;;;;;;4998418;28;20461;-51
2021/08/04 09:35:46;;;;;;;4.03;3.30;;;26.90;97.10;;;;;;4998075;28;20468;-52
2021/08/04 09:38:14;;;;;;;3.90;3.27;;;26.70;97.10;;;;;;4994630;28;20443;-50
2021/08/04 09:40:41;;;;;;;6.50;3.90;;;26.50;97.90;;;;;;4997848;28;20564;-53
2021/08/04 09:43:08;;;;;;;4.23;3.30;;;26.60;97.50;;;;;;4997911;28;20461;-47
2021/08/04 09:45:41;;;;;;;4.03;3.50;;;27.10;96.90;;;;;;4998552;28;20481;-49
2021/08/04 09:48:11;;;;;;;4.83;3.20;;;27.70;94.00;;;;;;4997638;28;20976;-51
2021/08/04 09:51:01;;;;;;;4.43;3.10;;;27.90;92.40;;;;;;4997954;28;20476;-51
2021/08/04 09:53:29;;;;;;;4.70;3.50;;;28.00;92.30;;;;;;4992426;28;20461;-52
2021/08/04 09:56:13;;;;;;;3.80;3.40;;;28.30;92.30;;;;;;4999240;28;20446;-53
2021/08/04 09:58:43;;;;;;;3.37;3.07;;;28.50;90.50;;;;;;4998128;28;20452;-52
2021/08/04 10:01:12;;;;;;;4.80;3.93;;;28.20;86.80;;;;;;4999704;28;20492;-50
2021/08/04 10:03:39;;;;;;;5.43;3.40;;;28.00;86.30;;;;;;4998257;28;20481;-50
2021/08/04 10:06:07;;;;;;;4.60;4.20;;;27.90;87.10;;;;;;4997202;28;20784;-49
2021/08/04 10:08:39;;;;;;;9.30;3.30;;;27.70;87.50;;;;;;4996828;28;20446;-49
2021/08/04 10:11:06;;;;;;;6.97;3.20;;;28.20;88.30;;;;;;4997533;28;20480;-52
2021/08/04 10:13:34;;;;;;;4.20;3.37;;;29.20;87.10;;;;;;4997272;28;20596;-48
2021/08/04 10:16:02;;;;;;;4.30;3.40;;;30.20;84.80;;;;;;4997363;28;20449;-50
2021/08/04 10:18:30;;;;;;;8.43;7.00;;;31.10;78.40;;;;;;4996574;28;21026;-50
2021/08/04 10:21:00;;;;;;;2.90;2.60;;;30.70;75.60;;;;;;4997184;28;20483;-53
2021/08/04 10:23:30;;;;;;;4.00;3.60;;;30.90;75.00;;;;;;4996521;28;20537;-52
2021/08/04 10:25:59;;;;;;;3.60;3.30;;;31.30;72.40;;;;;;4996984;28;20472;-52
2021/08/04 10:28:26;;;;;;;5.67;3.30;;;31.60;67.80;;;;;;4996098;28;20661;-51
2021/08/04 10:30:53;;;;;;;4.20;2.83;;;31.80;66.10;;;;;;4999744;28;21015;-49
2021/08/04 10:33:20;;;;;;;3.63;3.33;;;32.10;63.70;;;;;;5017473;28;20968;-49
2021/08/04 10:35:50;;;;;;;10.77;3.80;;;32.20;62.50;;;;;;5016734;28;20457;-50
2021/08/04 10:38:20;;;;;;;4.63;3.30;;;32.50;62.40;;;;;;5003719;28;20446;-49
2021/08/04 10:41:12;;;;;;;4.40;3.33;;;32.50;59.40;;;;;;4996263;28;20567;-48
2021/08/04 10:43:45;;;;;;;3.87;3.53;;;32.50;61.40;;;;;;4996257;28;20462;-50
2021/08/04 10:46:43;;;;;;;7.90;3.43;;;32.40;61.40;;;;;;4996727;28;20504;-48
2021/08/04 10:49:27;;;;;;;5.60;3.00;;;31.90;61.50;;;;;;4990665;28;20465;-53
2021/08/04 10:52:14;;;;;;;3.73;2.90;;;31.40;59.90;;;;;;4996979;28;20426;-51
2021/08/04 10:55:18;;;;;;;8.13;4.20;;;30.60;61.00;;;;;;4996745;28;20474;-51
2021/08/04 10:58:19;;;;;;;4.07;3.00;;;29.40;62.60;;;;;;4996744;28;20438;-46
2021/08/04 11:00:46;;;;;;;5.17;2.80;;;29.10;65.20;;;;;;4996572;28;20767;-50
2021/08/04 11:03:47;;;;;;;5.07;3.00;;;29.20;65.80;;;;;;4996584;28;20919;-49
2021/08/04 11:06:15;;;;;;;4.77;3.30;;;29.20;65.90;;;;;;4996103;28;20495;-50
2021/08/04 11:08:47;;;;;;;4.83;3.00;;;29.10;66.50;;;;;;4996522;28;20786;-50
2021/08/04 11:11:47;;;;;;;2.77;2.57;;;29.10;67.50;;;;;;4996368;28;20450;-50
2021/08/04 11:14:41;;;;;;;4.30;3.17;;;29.00;67.70;;;;;;4995779;28;20448;-53
2021/08/04 11:17:09;;;;;;;4.23;3.20;;;28.90;65.30;;;;;;4996103;28;20545;-51
2021/08/04 11:20:09;;;;;;;3.63;3.03;;;28.90;67.40;;;;;;4995975;28;20481;-54
2021/08/04 11:22:44;;;;;;;4.10;3.10;;;28.70;67.90;;;;;;4996086;28;20480;-50
2021/08/04 11:25:12;;;;;;;3.30;2.93;;;28.40;68.20;;;;;;4996025;28;20898;-49
2021/08/04 11:28:06;;;;;;;3.07;2.30;;;28.40;69.80;;;;;;4996077;28;20519;-49
2021/08/04 11:30:36;;;;;;;4.63;3.17;;;28.30;70.00;;;;;;4996140;28;20435;-52
2021/08/04 11:33:26;;;;;;;3.20;2.90;;;28.30;71.00;;;;;;4995840;28;20450;-52
2021/08/04 11:36:02;;;;;;;3.43;2.80;;;28.30;71.90;;;;;;4994842;28;20485;-54
2021/08/04 11:38:39;;;;;;;3.40;3.10;;;28.10;70.80;;;;;;4996007;28;20438;-51
2021/08/04 11:41:22;;;;;;;3.67;2.80;;;28.00;71.00;;;;;;4995554;28;20536;-52
2021/08/04 11:43:50;;;;;;;6.13;2.77;;;27.60;71.50;;;;;;4994622;28;20449;-51
2021/08/04 11:46:36;;;;;;;3.00;2.70;;;27.60;69.70;;;;;;4995716;28;20557;-51
2021/08/04 11:49:08;;;;;;;6.50;3.00;;;27.70;70.90;;;;;;4995655;28;20807;-52
2021/08/04 11:51:38;;;;;;;3.40;2.47;;;27.70;70.00;;;;;;4995467;28;20504;-47
2021/08/04 11:54:06;;;;;;;3.40;3.10;;;27.70;71.00;;;;;;4994842;28;20454;-47
2021/08/04 11:56:33;;;;;;;2.80;2.60;;;27.70;71.50;;;;;;4995340;28;20446;-49
2021/08/04 11:59:05;;;;;;;2.90;2.70;;;27.80;71.40;;;;;;4995489;28;20430;-47
2021/08/04 12:01:35;;;;;;;4.50;2.90;;;27.80;70.10;;;;;;4995272;28;20544;-50
2021/08/04 12:04:12;;;;;;;3.47;3.17;;;27.90;69.70;;;;;;4995345;28;20963;-47
2021/08/04 12:06:40;;;;;;;6.87;2.77;;;27.80;71.40;;;;;;4995376;28;20434;-47
2021/08/04 12:09:20;;;;;;;3.20;2.90;;;27.70;70.60;;;;;;4995364;28;20794;-50
2021/08/04 12:11:47;;;;;;;3.70;2.50;;;27.50;70.70;;;;;;4995516;28;20883;-53
2021/08/04 12:14:15;;;;;;;3.70;2.80;;;27.40;70.20;;;;;;4995141;28;20509;-52
2021/08/04 12:16:45;;;;;;;3.40;2.40;;;27.30;70.80;;;;;;4995393;28;20509;-51
2021/08/04 12:19:12;;;;;;;3.30;3.00;;;27.20;71.50;;;;;;4995252;28;20446;-50
2021/08/04 12:21:38;;;;;;;2.83;2.60;;;27.20;72.80;;;;;;4995076;28;20478;-51
2021/08/04 12:24:06;;;;;;;2.83;2.53;;;27.20;71.20;;;;;;4994775;28;20454;-51
2021/08/04 12:26:45;;;;;;;16.10;3.07;;;27.20;69.80;;;;;;4994997;28;20446;-50
2021/08/04 12:29:16;;;;;;;3.00;2.60;;;27.20;70.50;;;;;;4995104;28;20833;-51
2021/08/04 12:32:03;;;;;;;5.63;3.00;;;27.30;69.80;;;;;;4995438;28;20536;-51
2021/08/04 12:34:31;;;;;;;4.80;2.90;;;27.50;71.60;;;;;;4994842;28;20458;-47
2021/08/04 12:36:58;;;;;;;5.13;2.73;;;27.20;71.70;;;;;;4994675;28;20512;-44
2021/08/04 12:39:27;;;;;;;3.07;2.77;;;26.80;72.20;;;;;;4994910;28;20449;-45
2021/08/04 12:41:54;;;;;;;3.70;3.03;;;26.40;73.00;;;;;;4996420;28;20568;-49
2021/08/04 12:44:23;;;;;;;5.63;3.13;;;26.10;74.80;;;;;;4995500;28;20770;-45
2021/08/04 12:46:50;;;;;;;3.60;3.30;;;25.90;73.70;;;;;;4994990;28;20450;-47
2021/08/04 12:49:22;;;;;;;5.70;3.53;;;25.80;74.70;;;;;;4995588;28;20462;-47
2021/08/04 12:51:55;;;;;;;3.27;2.97;;;25.60;76.50;;;;;;4995286;28;20454;-45
2021/08/04 12:54:30;;;;;;;3.70;3.37;;;25.40;77.10;;;;;;4995485;28;20453;-47
2021/08/04 12:56:59;;;;;;;5.67;3.63;;;25.40;76.30;;;;;;4995313;28;20829;-49
2021/08/04 12:59:41;;;;;;;3.87;3.57;;;25.40;78.60;;;;;;4995643;28;20461;-51
2021/08/04 13:02:10;;;;;;;3.80;3.40;;;25.30;78.90;;;;;;4995941;28;20497;-49
2021/08/04 13:04:40;;;;;;;4.93;3.20;;;25.20;80.90;;;;;;4995717;28;20779;-44
2021/08/04 13:07:09;;;;;;;4.80;3.73;;;25.20;80.90;;;;;;4995481;28;20457;-46
2021/08/04 13:09:50;;;;;;;4.20;3.53;;;25.30;80.10;;;;;;4995687;28;20446;-52